Terminal Aerodrome Forecast
Issued by NWS Sterling, VA

Current Version | Previous Version | Graphics & Text | Print | Product List | Glossary On
Versions: 1 2 3 4 5 6 7 8 9 10 11 12 13 14
000
FTUS41 KLWX 251100
TAFMRB
TAF
KMRB 251139Z 2512/2612 00000KT 1/2SM FG FEW150
     FM251300 10005KT P6SM FEW150
     FM260600 00000KT 5SM BR SKC=

USA.gov is the U.S. government's official web portal to all federal, state and local government web resources and services.